Terminal Aerodrome Forecast
Issued by NWS

Home | Current Version | Previous Version | Text Only | Print | Product List | Glossary Off
Versions: 1 2 3 4 5 6 7 8 9 10 11 12 13 14 15 16 17 18 19 20 21 22 23 24 25 26 27 28 29 30 31 32

506
FTUS43 KLOT 250827 AAB
TAFORD
TAF AMD
KORD 250827Z 2508/2612 29012KT 4SM -SN SCT015 OVC022
      TEMPO 2508/2509 1 1/2SM -SN OVC015
     FM250900 29013G19KT 3SM -SN SCT015 OVC022
      TEMPO 2509/2512 2SM -SN OVC015
     FM251200 30016G24KT 4SM -SN BR OVC015
     FM251600 29015G23KT P6SM OVC020
     FM252300 29012G18KT P6SM BKN035
     FM260200 28008KT P6SM SCT100
     FM260800 23006KT P6SM SCT250=

USA.gov is the U.S. government's official web portal to all federal, state and local government web resources and services.